Flight Track Log - Related Links

Times and Time Zones

All times are in EDT time to prevent confusion due to time zone crossing. See the GJS6221 flight status page for this flight to view local times or setup timezone preferences in your user account.

Time Position Orientation Groundspeed Altitude Reporting Facility
EDT Latitude Longitude Course Direction KTS MPH feet Rate Location/Type
Tue 01:40:00 PM 40.7333 -73.8333 37° Northeast 183 211 3,400  Level New York TRACON
Tue 01:41:00 PM 40.7667 -73.7833 49° Northeast 227 261 5,900 2,550 Climbing New York TRACON
Tue 01:42:00 PM 40.8167 -73.7333 37° Northeast 276 318 8,500 2,000 Climbing New York TRACON
Tue 01:43:00 PM 40.9000 -73.6833 24° Northeast 291 335 9,900 1,094 Climbing New York TRACON
Tue 01:44:39 PM 41.0253 -73.5900 29° Northeast 320 368 11,400 1,245 Climbing Boston Center
Tue 01:45:00 PM 41.3325 -73.4175 37° Northeast  Level FlightAware Approximate
Tue 01:45:39 PM 41.1114 -73.5392 24° Northeast 356 410 13,200  Level Boston Center
Tue 01:46:39 PM 41.2203 -73.4722 25° Northeast 385 443 15,300 2,050 Climbing Boston Center
Tue 01:47:39 PM 41.3167 -73.4156 24° Northeast 398 458 17,300 1,750 Climbing Boston Center
Tue 01:48:39 PM 41.4319 -73.3428 25° Northeast 406 467 18,800 1,400 Climbing Boston Center
Tue 01:49:39 PM 41.5222 -73.2608 34° Northeast 413 475 20,100 1,350 Climbing Boston Center
Tue 01:50:39 PM 41.6231 -73.1400 42° Northeast 427 491 21,500 1,350 Climbing Boston Center
Tue 01:51:39 PM 41.7481 -73.1244 North 423 487 22,800 1,300 Climbing Boston Center
Tue 01:52:39 PM 41.8772 -73.1289 359° North 434 499 24,100 1,300 Climbing Boston Center
Tue 01:53:39 PM 42.0064 -73.1303 360° North 448 516 25,400 1,200 Climbing Boston Center
Tue 01:54:39 PM 42.1419 -73.1317 360° North 466 536 26,500 800 Climbing Boston Center
Tue 01:55:39 PM 42.2794 -73.1361 359° North 478 550 27,000 250 Climbing Boston Center
Tue 01:56:39 PM 42.4089 -73.1261 North 499 574 27,000  Level Boston Center
Tue 01:57:39 PM 42.5483 -73.1306 359° North 499 574 27,000  Level Boston Center
Tue 01:58:39 PM 42.7025 -73.1378 358° North 499 574 27,000 -50 Level Boston Center
Tue 01:59:39 PM 42.8422 -73.1367 360° North 499 574 26,900 -450 Descending Boston Center
Tue 02:00:39 PM 42.9589 -73.1408 359° North 488 562 26,100 -864 Descending Boston Center
Tue 02:01:51 PM 43.1111 -73.1425 360° North 468 539 25,000 -727 Descending Boston Center
Tue 02:02:51 PM 43.2319 -73.1411 360° North 442 509 24,500 -1,300 Descending Boston Center
Tue 02:03:51 PM 43.3528 -73.1453 359° North 437 503 22,400 -2,150 Descending Boston Center
Tue 02:04:51 PM 43.4778 -73.1467 360° North 420 483 20,200 -2,100 Descending Boston Center
Tue 02:05:51 PM 43.5883 -73.1453 North 404 465 18,200 -1,750 Descending Boston Center
Tue 02:06:51 PM 43.6842 -73.1464 360° North 388 447 16,700 -1,750 Descending Boston Center
Tue 02:07:51 PM 43.7861 -73.1475 360° North 373 429 14,700 -2,150 Descending Boston Center
Tue 02:08:51 PM 43.9008 -73.1489 360° North 367 422 12,400 -1,800 Descending Boston Center
Tue 02:09:51 PM 43.9986 -73.1500 360° North 356 410 11,100 -1,200 Descending Boston Center
Tue 02:10:51 PM 44.0861 -73.1539 358° North 329 379 10,000 -1,400 Descending Boston Center
Tue 02:11:51 PM 44.1653 -73.1608 356° North 300 345 8,300 -1,750 Descending Boston Center
Tue 02:12:51 PM 44.2400 -73.1992 340° North 276 318 6,500 -1,800 Descending Boston Center
Tue 02:13:51 PM 44.3128 -73.2350 341° North 276 318 4,700 -1,250 Descending Boston Center
Tue 02:14:51 PM 44.3792 -73.2767 336° Northwest 269 310 4,000 -300 Descending Boston Center
Tue 02:15:51 PM 44.4331 -73.3181 331° Northwest 239 275 4,100 50 Climbing Boston Center
Tue 02:16:51 PM 44.4847 -73.3567 332° Northwest 213 245 4,100 -550 Level Boston Center
Tue 02:17:51 PM 44.5344 -73.3922 333° Northwest 213 245 3,000 -1,000 Descending Boston Center
Tue 02:18:51 PM 44.5806 -73.3756 14° North 173 199 2,100 -450 Descending Boston Center
Tue 02:19:51 PM 44.5725 -73.3172 101° East 101 116 2,100  Level Boston Center
Tue 02:20:51 PM 44.5458 -73.2731 130° Southeast 114 131 2,100 -200 Level Boston Center
Tue 02:21:51 PM 44.5192 -73.2292 130° Southeast 140 161 1,700 -400 Descending Boston Center

Login

Don't have an account? Register now (free) for customized features, flight alerts, and more!